Mount Rainier, MD (20712)

6:32 PM EDT on September 25, 2016 (GMT -0400)
Woodridge | | Change Station

Elev 128 ft 38.94 °N, 76.97 °W | Updated 39 seconds ago

Clear
Clear
69.6 °F
Feels Like 69.6 °F
N
3.7
Wind Variable Wind from NW

Today
High -- | Low -- °F
--% Chance of Precip.
Yesterday
High -- | Low -- °F
Precip. -- in
Pressure 30.13 in
Visibility 10.0 miles
Clouds Clear
Dew Point 51 °F
Humidity 51%
Rainfall 0.00 in
Snow Depth Not available.
6:58 AM 6:59 PM
Waning Crescent, 24% visible
METAR KCGS 252209Z AUTO 13007KT 10SM CLR 21/08 A3013 RMK AO1
Pressure 30.13 in
Visibility 10.0 miles
Clouds Clear
Dew Point 51 °F
Humidity 51%
Rainfall 0.00 in
Snow Depth Not available.
6:58 AM 6:59 PM
Waning Crescent, 24% visible
METAR KCGS 252209Z AUTO 13007KT 10SM CLR 21/08 A3013 RMK AO1

10-Day Weather Forecast

Almanac

Astronomy

Sep. 25, 2016 Rise Set
Actual Time
Civil Twilight
Nautical Twilight
Astronomical Twilight
Moon
Length of Visible Light
Length of Day
Tomorrow will be .
, % of the Moon is Illuminated

Today's Extremes

State Highs State Lows

Community

WunderPhotos

Upload Photos

1,941,759 photos uploaded!

WunderBlog® & News

Nearby

Air Quality

  Air Quality AQ Index Pollutant
Not available.

Snow Depth

Station Depth Elevation

Earthquake Activity

City Distance Mag. Time & Date
Minimum magnitude displayed is 2.5.

Coastal Water Temperatures

Place Temperature

Stations

Nearby Weather Stations

Station Location Temp. Windchill Dew Point Humidity Wind Precip. Elev Updated Type
                   

Watches & Warnings

There are currently no watches in effect.